Time;durP1;ratioP1;P1;durP2;ratioP2;P2;SDS_P1;SDS_P2;PMS_P1;PMS_P2;Temp;Humidity;BMP_temperature;BMP_pressure;BME280_temperature;BME280_humidity;BME280_pressure;Samples;Min_cycle;Max_cycle;Signal;HPM_P1;HPM_P2
2023/02/24 00:01:50;;;;;;;8.23;3.20;;;;;;;;;;10342372;28;20064;-62
2023/02/24 00:06:48;;;;;;;;;;;;;;;;;;10340500;28;20079;-62
2023/02/24 00:11:47;;;;;;;11.32;4.15;;;;;;;;;;10341936;28;19970;-63
2023/02/24 00:16:47;;;;;;;8.45;4.25;;;;;;;;;;10338704;28;20067;-62
2023/02/24 00:21:46;;;;;;;10.15;3.92;;;;;;;;;;10342291;28;20068;-62
2023/02/24 00:26:47;;;;;;;9.40;4.75;;;;;;;;;;10340581;28;20072;-63
2023/02/24 00:31:49;;;;;;;8.55;3.63;;;;;;;;;;10333389;28;20094;-63
2023/02/24 00:36:48;;;;;;;10.88;3.55;;;;;;;;;;10354195;28;20079;-63
2023/02/24 00:41:47;;;;;;;8.07;4.03;;;;;;;;;;10332681;28;20068;-61
2023/02/24 00:46:46;;;;;;;11.88;4.25;;;;;;;;;;10339705;28;20083;-62
2023/02/24 00:51:46;;;;;;;9.68;3.72;;;;;;;;;;10340647;28;20102;-63
2023/02/24 00:56:44;;;;;;;11.38;4.20;;;;;;;;;;10340733;28;20068;-61
2023/02/24 01:01:44;;;;;;;6.32;3.85;;;;;;;;;;10337470;28;20064;-62
2023/02/24 01:06:46;;;;;;;8.82;3.85;;;;;;;;;;10335553;28;20087;-63
2023/02/24 01:17:00;;;;;;;6.65;3.70;;;;;;;;;;10304107;28;20083;-62
2023/02/24 01:22:01;;;;;;;6.40;4.07;;;;;;;;;;10346454;28;20088;-63
2023/02/24 01:26:59;;;;;;;10.88;4.60;;;;;;;;;;10345151;28;20098;-62
2023/02/24 01:31:58;;;;;;;10.35;4.50;;;;;;;;;;10347071;28;20063;-62
2023/02/24 01:36:56;;;;;;;8.95;4.50;;;;;;;;;;10342505;28;20067;-61
2023/02/24 01:41:59;;;;;;;13.10;4.22;;;;;;;;;;10346161;28;20071;-61
2023/02/24 01:47:00;;;;;;;11.90;4.35;;;;;;;;;;10354076;28;20045;-61
2023/02/24 01:52:01;;;;;;;6.10;3.88;;;;;;;;;;10344294;28;20501;-63
2023/02/24 01:57:04;;;;;;;9.57;5.13;;;;;;;;;;10347131;28;20052;-62
2023/02/24 02:02:05;;;;;;;9.00;5.57;;;;;;;;;;10344174;28;20080;-62
2023/02/24 02:07:04;;;;;;;9.27;4.93;;;;;;;;;;10346362;28;20070;-62
2023/02/24 02:12:04;;;;;;;10.10;5.40;;;;;;;;;;10347860;28;20461;-62
2023/02/24 02:17:10;;;;;;;8.38;4.65;;;;;;;;;;10344119;28;20072;-62
2023/02/24 02:22:22;;;;;;;16.17;5.75;;;;;;;;;;10343414;28;20537;-62
2023/02/24 02:27:30;;;;;;;6.97;5.15;;;;;;;;;;10344981;28;20471;-62
2023/02/24 02:33:00;;;;;;;6.78;4.47;;;;;;;;;;10342491;28;20075;-61
2023/02/24 02:38:06;;;;;;;8.68;4.85;;;;;;;;;;10346113;28;20041;-62
2023/02/24 02:43:09;;;;;;;10.85;4.72;;;;;;;;;;10343407;28;20095;-62
2023/02/24 02:48:11;;;;;;;12.63;6.18;;;;;;;;;;10343725;28;20071;-62
2023/02/24 02:53:13;;;;;;;10.23;6.15;;;;;;;;;;10342283;28;20079;-62
2023/02/24 02:58:13;;;;;;;10.48;5.75;;;;;;;;;;10343005;28;20048;-62
2023/02/24 03:03:13;;;;;;;25.70;8.32;;;;;;;;;;10343045;28;20597;-62
2023/02/24 03:08:18;;;;;;;11.80;6.57;;;;;;;;;;10341332;28;20052;-63
2023/02/24 03:13:18;;;;;;;7.22;4.55;;;;;;;;;;10343562;28;20450;-62
2023/02/24 03:18:19;;;;;;;11.43;5.03;;;;;;;;;;10348349;28;20054;-62
2023/02/24 03:23:24;;;;;;;9.23;5.03;;;;;;;;;;10350354;28;20391;-62
2023/02/24 03:28:27;;;;;;;10.70;5.50;;;;;;;;;;10340405;28;20078;-63
2023/02/24 03:33:29;;;;;;;11.53;6.77;;;;;;;;;;10341790;28;20076;-62
2023/02/24 03:38:30;;;;;;;9.38;4.47;;;;;;;;;;10340392;28;20563;-62
2023/02/24 03:43:30;;;;;;;18.05;12.23;;;;;;;;;;10340836;28;20063;-63
2023/02/24 03:48:30;;;;;;;19.48;12.90;;;;;;;;;;10340796;28;20071;-63
2023/02/24 03:53:36;;;;;;;8.60;5.70;;;;;;;;;;10341053;28;20076;-62
2023/02/24 03:58:45;;;;;;;7.50;5.40;;;;;;;;;;10347391;28;20468;-61
2023/02/24 04:03:49;;;;;;;10.70;8.05;;;;;;;;;;10339893;28;20083;-62
2023/02/24 04:09:04;;;;;;;10.98;6.45;;;;;;;;;;10356970;27;20060;-62
2023/02/24 04:14:08;;;;;;;10.45;6.57;;;;;;;;;;10340957;28;20079;-61
2023/02/24 04:19:12;;;;;;;14.63;8.63;;;;;;;;;;10339326;28;20043;-62
2023/02/24 04:24:16;;;;;;;12.02;7.88;;;;;;;;;;10339956;28;20506;-62
2023/02/24 04:29:19;;;;;;;41.00;12.13;;;;;;;;;;10348066;28;20083;-62
2023/02/24 04:34:18;;;;;;;28.20;13.23;;;;;;;;;;10336612;28;20086;-62
2023/02/24 04:39:22;;;;;;;14.73;7.97;;;;;;;;;;10339045;28;20063;-62
2023/02/24 04:44:24;;;;;;;11.32;6.07;;;;;;;;;;10343249;28;20058;-63
2023/02/24 04:49:22;;;;;;;12.30;6.10;;;;;;;;;;10339719;28;20075;-63
2023/02/24 04:54:23;;;;;;;26.30;17.58;;;;;;;;;;10335744;28;20068;-63
2023/02/24 04:59:23;;;;;;;12.60;7.10;;;;;;;;;;10339170;28;20518;-63
2023/02/24 05:04:22;;;;;;;61.97;22.67;;;;;;;;;;10334540;28;20051;-62
2023/02/24 05:09:22;;;;;;;30.50;15.30;;;;;;;;;;10339682;28;20071;-63
2023/02/24 05:14:21;;;;;;;21.92;11.68;;;;;;;;;;10339134;28;20072;-63
2023/02/24 05:24:37;;;;;;;8.45;5.13;;;;;;;;;;10351053;28;20072;-62
2023/02/24 05:29:35;;;;;;;10.82;7.00;;;;;;;;;;10338601;28;20048;-62
2023/02/24 05:34:33;;;;;;;36.83;9.05;;;;;;;;;;10338192;28;20091;-62
2023/02/24 05:39:33;;;;;;;17.30;6.57;;;;;;;;;;10338447;28;20477;-61
2023/02/24 05:44:34;;;;;;;7.45;5.10;;;;;;;;;;10341972;28;20086;-61
2023/02/24 05:49:34;;;;;;;6.38;4.43;;;;;;;;;;10337607;28;20094;-62
2023/02/24 05:54:34;;;;;;;10.43;4.25;;;;;;;;;;10333371;28;20132;-63
2023/02/24 05:59:34;;;;;;;18.05;6.80;;;;;;;;;;10339171;28;20087;-63
2023/02/24 06:04:39;;;;;;;12.95;7.57;;;;;;;;;;10339250;28;20067;-63
2023/02/24 06:09:39;;;;;;;15.70;10.73;;;;;;;;;;10355422;28;20059;-62
2023/02/24 06:14:38;;;;;;;10.80;5.72;;;;;;;;;;10348172;28;20086;-61
2023/02/24 06:19:38;;;;;;;8.07;4.53;;;;;;;;;;10352714;28;20068;-63
2023/02/24 06:24:36;;;;;;;9.73;4.82;;;;;;;;;;10349812;28;20072;-63
2023/02/24 06:29:35;;;;;;;14.82;6.65;;;;;;;;;;10349299;28;20484;-63
2023/02/24 06:34:34;;;;;;;9.75;5.50;;;;;;;;;;10346471;28;20478;-63
2023/02/24 06:39:33;;;;;;;12.45;5.32;;;;;;;;;;10352001;28;20078;-62
2023/02/24 06:44:34;;;;;;;10.45;5.75;;;;;;;;;;10346932;28;20071;-63
2023/02/24 06:49:32;;;;;;;11.82;4.88;;;;;;;;;;10356506;28;20512;-63
2023/02/24 06:54:34;;;;;;;17.10;7.63;;;;;;;;;;10346342;28;20063;-63
2023/02/24 06:59:33;;;;;;;9.20;5.40;;;;;;;;;;10350144;28;20070;-63
2023/02/24 07:04:42;;;;;;;9.65;6.72;;;;;;;;;;10344052;28;20068;-63
2023/02/24 07:09:44;;;;;;;8.85;5.00;;;;;;;;;;10342566;28;20135;-62
2023/02/24 07:14:42;;;;;;;13.20;5.55;;;;;;;;;;10346003;28;20099;-62
2023/02/24 07:19:41;;;;;;;16.27;6.95;;;;;;;;;;10342473;28;20060;-62
2023/02/24 07:24:44;;;;;;;53.60;29.35;;;;;;;;;;10345926;28;20087;-63
2023/02/24 07:29:44;;;;;;;37.67;15.73;;;;;;;;;;10340063;28;20066;-62
2023/02/24 07:34:42;;;;;;;37.95;27.50;;;;;;;;;;10341758;28;20068;-60
2023/02/24 07:39:42;;;;;;;14.93;9.32;;;;;;;;;;10332077;28;20079;-64
2023/02/24 07:44:43;;;;;;;30.52;14.90;;;;;;;;;;10330626;28;20079;-63
2023/02/24 07:49:44;;;;;;;14.85;7.30;;;;;;;;;;10334224;28;20079;-62
2023/02/24 07:54:43;;;;;;;14.82;6.70;;;;;;;;;;10333684;28;20082;-63
2023/02/24 07:59:45;;;;;;;13.68;7.38;;;;;;;;;;10338834;28;20165;-63
2023/02/24 08:04:50;;;;;;;15.77;10.63;;;;;;;;;;10338915;28;20076;-63
2023/02/24 08:15:07;;;;;;;18.08;13.80;;;;;;;;;;10338557;28;20075;-61
2023/02/24 08:20:23;;;;;;;16.95;10.68;;;;;;;;;;10340350;28;20470;-63
2023/02/24 08:25:23;;;;;;;62.63;45.47;;;;;;;;;;10337648;28;20086;-63
2023/02/24 08:30:23;;;;;;;16.25;11.60;;;;;;;;;;10340795;28;20462;-61
2023/02/24 08:35:24;;;;;;;20.70;13.45;;;;;;;;;;10342925;28;20079;-63
2023/02/24 08:40:36;;;;;;;16.10;11.23;;;;;;;;;;10335866;28;20364;-63
2023/02/24 08:45:37;;;;;;;12.05;10.27;;;;;;;;;;10341290;28;20083;-63
2023/02/24 08:50:38;;;;;;;12.98;10.25;;;;;;;;;;10341089;28;20075;-62
2023/02/24 08:55:38;;;;;;;14.02;11.27;;;;;;;;;;10337503;28;20072;-63
2023/02/24 09:00:47;;;;;;;23.38;14.90;;;;;;;;;;10339563;28;20082;-62
2023/02/24 09:05:47;;;;;;;13.40;11.30;;;;;;;;;;10335643;28;20518;-62
2023/02/24 09:10:45;;;;;;;17.25;10.70;;;;;;;;;;10339397;28;20083;-63
2023/02/24 09:15:44;;;;;;;13.02;10.82;;;;;;;;;;10339127;28;20068;-62
2023/02/24 09:21:14;;;;;;;18.42;13.38;;;;;;;;;;10337234;28;20079;-63
2023/02/24 09:26:14;;;;;;;14.23;11.73;;;;;;;;;;10339844;28;20482;-62
2023/02/24 09:31:15;;;;;;;21.73;13.88;;;;;;;;;;10339993;28;20505;-63
2023/02/24 09:36:18;;;;;;;16.40;12.20;;;;;;;;;;10334391;28;20083;-62
2023/02/24 09:41:30;;;;;;;13.60;10.30;;;;;;;;;;10342890;28;20084;-63
2023/02/24 09:46:33;;;;;;;24.40;14.77;;;;;;;;;;10345211;28;20080;-62
2023/02/24 09:51:41;;;;;;;20.38;13.25;;;;;;;;;;10346718;28;20076;-62
2023/02/24 09:56:42;;;;;;;19.92;14.05;;;;;;;;;;10347022;28;20078;-62
2023/02/24 10:01:43;;;;;;;24.75;17.85;;;;;;;;;;10345595;28;20060;-63
2023/02/24 10:06:43;;;;;;;25.33;19.48;;;;;;;;;;10345941;28;20075;-63
2023/02/24 10:11:52;;;;;;;25.38;17.08;;;;;;;;;;10345469;28;20063;-62
2023/02/24 10:17:21;;;;;;;22.95;16.83;;;;;;;;;;10345315;28;20555;-62
2023/02/24 10:22:26;;;;;;;28.10;18.60;;;;;;;;;;10344967;28;20087;-62
2023/02/24 10:27:27;;;;;;;18.25;12.98;;;;;;;;;;10344219;28;20083;-62
2023/02/24 10:32:32;;;;;;;19.45;14.63;;;;;;;;;;10345611;28;20561;-62
2023/02/24 10:37:31;;;;;;;22.67;18.20;;;;;;;;;;10341242;28;20076;-62
2023/02/24 10:42:31;;;;;;;17.48;12.23;;;;;;;;;;10346729;28;20079;-62
2023/02/24 10:47:30;;;;;;;18.98;14.50;;;;;;;;;;10344169;28;20482;-62
2023/02/24 10:52:49;;;;;;;19.10;15.85;;;;;;;;;;10342417;28;20475;-62
2023/02/24 10:57:54;;;;;;;29.48;21.88;;;;;;;;;;10343656;28;20083;-63
2023/02/24 11:03:05;;;;;;;26.05;22.00;;;;;;;;;;10345248;28;20059;-62
2023/02/24 11:08:10;;;;;;;21.67;18.63;;;;;;;;;;10342732;28;20071;-62
2023/02/24 11:18:31;;;;;;;18.20;14.50;;;;;;;;;;10342623;28;20469;-63
2023/02/24 11:23:33;;;;;;;63.00;57.00;;;;;;;;;;10344771;28;20080;-62
2023/02/24 11:28:47;;;;;;;16.90;12.02;;;;;;;;;;10342296;28;20090;-62
2023/02/24 11:33:50;;;;;;;17.75;15.95;;;;;;;;;;10342921;28;20078;-62
2023/02/24 11:38:56;;;;;;;19.98;14.52;;;;;;;;;;10343093;28;20076;-62
2023/02/24 11:44:18;;;;;;;20.60;18.33;;;;;;;;;;10340357;28;20068;-63
2023/02/24 11:49:25;;;;;;;20.10;14.98;;;;;;;;;;10342278;28;20072;-62
2023/02/24 11:54:25;;;;;;;14.15;12.00;;;;;;;;;;10342817;28;20072;-63
2023/02/24 11:59:29;;;;;;;25.75;19.52;;;;;;;;;;10340284;28;20548;-63
2023/02/24 12:04:30;;;;;;;38.20;34.53;;;;;;;;;;10333897;28;20509;-62
2023/02/24 12:09:30;;;;;;;24.13;17.35;;;;;;;;;;10342233;28;20067;-63
2023/02/24 12:14:33;;;;;;;17.65;15.43;;;;;;;;;;10340132;28;20505;-63
2023/02/24 12:19:33;;;;;;;13.15;11.70;;;;;;;;;;10339133;28;20083;-62
2023/02/24 12:24:34;;;;;;;15.57;13.85;;;;;;;;;;10339832;28;20800;-62
2023/02/24 12:29:43;;;;;;;16.90;11.52;;;;;;;;;;10339377;28;20091;-63
2023/02/24 12:34:46;;;;;;;19.10;15.00;;;;;;;;;;10339053;28;20080;-62
2023/02/24 12:39:48;;;;;;;16.40;13.40;;;;;;;;;;10339057;28;20079;-63
2023/02/24 12:44:51;;;;;;;12.68;11.38;;;;;;;;;;10338937;28;20798;-63
2023/02/24 12:50:05;;;;;;;18.13;12.98;;;;;;;;;;10336024;28;20473;-62
2023/02/24 12:55:07;;;;;;;19.23;14.63;;;;;;;;;;10334281;28;20090;-62
2023/02/24 13:00:10;;;;;;;25.25;22.17;;;;;;;;;;10341050;28;20064;-63
2023/02/24 13:05:11;;;;;;;15.90;13.48;;;;;;;;;;10338834;28;20079;-62
2023/02/24 13:10:17;;;;;;;18.25;13.38;;;;;;;;;;10343664;28;20063;-62
2023/02/24 13:15:19;;;;;;;25.15;17.88;;;;;;;;;;10341940;28;20079;-63
2023/02/24 13:20:28;;;;;;;16.58;13.25;;;;;;;;;;10348981;28;20083;-62
2023/02/24 13:25:30;;;;;;;17.17;13.15;;;;;;;;;;10342249;28;20059;-63
2023/02/24 13:30:32;;;;;;;55.65;29.83;;;;;;;;;;10344980;28;20064;-63
2023/02/24 13:35:32;;;;;;;54.40;28.55;;;;;;;;;;10344919;28;20079;-62
2023/02/24 13:40:30;;;;;;;15.32;13.13;;;;;;;;;;10346632;28;20506;-63
2023/02/24 13:45:29;;;;;;;24.80;15.63;;;;;;;;;;10343191;28;20559;-63
2023/02/24 13:50:31;;;;;;;34.67;23.75;;;;;;;;;;10346795;28;20083;-62
2023/02/24 13:55:34;;;;;;;24.42;16.13;;;;;;;;;;10344327;28;20083;-63
2023/02/24 14:00:40;;;;;;;25.10;18.30;;;;;;;;;;10345609;28;20080;-64
2023/02/24 14:05:40;;;;;;;27.00;17.48;;;;;;;;;;10345463;28;20068;-63
2023/02/24 14:10:44;;;;;;;14.65;12.40;;;;;;;;;;10345694;28;20060;-62
2023/02/24 14:15:43;;;;;;;25.13;15.73;;;;;;;;;;10349533;28;20370;-62
2023/02/24 14:20:44;;;;;;;15.95;12.93;;;;;;;;;;10347454;28;20062;-62
2023/02/24 14:25:42;;;;;;;19.55;13.52;;;;;;;;;;10344772;28;20071;-63
2023/02/24 14:30:41;;;;;;;27.98;23.98;;;;;;;;;;10343068;27;20072;-62
2023/02/24 14:35:41;;;;;;;29.67;20.88;;;;;;;;;;10351447;28;20513;-63
2023/02/24 14:40:48;;;;;;;26.08;19.13;;;;;;;;;;10332170;28;20517;-62
2023/02/24 14:45:48;;;;;;;22.83;17.05;;;;;;;;;;10336461;28;20071;-61
2023/02/24 14:50:46;;;;;;;45.33;40.45;;;;;;;;;;10341333;28;20068;-63
2023/02/24 14:55:46;;;;;;;59.65;49.80;;;;;;;;;;10339082;28;20075;-62
2023/02/24 15:00:48;;;;;;;45.15;30.75;;;;;;;;;;10340771;28;20071;-62
2023/02/24 15:05:48;;;;;;;19.05;17.02;;;;;;;;;;10341178;28;20068;-62
2023/02/24 15:10:46;;;;;;;30.52;18.90;;;;;;;;;;10342401;28;20572;-63
2023/02/24 15:15:44;;;;;;;31.23;25.15;;;;;;;;;;10343996;28;20080;-63
2023/02/24 15:20:44;;;;;;;32.15;24.52;;;;;;;;;;10345170;28;20067;-63
2023/02/24 15:25:44;;;;;;;63.60;42.45;;;;;;;;;;10335533;28;20060;-62
2023/02/24 15:30:53;;;;;;;43.33;29.23;;;;;;;;;;10341416;28;20040;-63
2023/02/24 15:35:53;;;;;;;107.55;77.68;;;;;;;;;;10348069;28;20072;-62
2023/02/24 15:40:52;;;;;;;48.22;32.58;;;;;;;;;;10341066;28;20083;-62
2023/02/24 15:45:51;;;;;;;48.83;38.42;;;;;;;;;;10340742;28;20497;-63
2023/02/24 15:50:50;;;;;;;41.58;35.22;;;;;;;;;;10343051;28;20060;-63
2023/02/24 15:55:49;;;;;;;42.40;33.65;;;;;;;;;;10338530;28;20468;-62
2023/02/24 16:00:51;;;;;;;42.50;32.90;;;;;;;;;;10341058;28;20477;-62
2023/02/24 16:05:49;;;;;;;67.53;55.65;;;;;;;;;;10343337;28;20097;-62
2023/02/24 16:10:52;;;;;;;56.13;44.85;;;;;;;;;;10335257;28;20063;-62
2023/02/24 16:15:50;;;;;;;48.25;38.92;;;;;;;;;;10350819;28;20064;-62
2023/02/24 16:20:52;;;;;;;54.08;41.65;;;;;;;;;;10348453;28;20072;-62
2023/02/24 16:25:54;;;;;;;125.75;86.88;;;;;;;;;;10346838;28;20071;-62
2023/02/24 16:30:52;;;;;;;84.90;59.50;;;;;;;;;;10337210;28;20074;-63
2023/02/24 16:35:52;;;;;;;97.53;73.05;;;;;;;;;;10343672;28;20501;-61
2023/02/24 16:40:50;;;;;;;204.18;135.43;;;;;;;;;;10342317;28;20078;-61
2023/02/24 16:45:52;;;;;;;507.55;366.58;;;;;;;;;;10337019;28;20064;-62
2023/02/24 16:50:50;;;;;;;74.43;55.20;;;;;;;;;;10342950;28;20065;-61
2023/02/24 16:55:49;;;;;;;114.97;102.55;;;;;;;;;;10360809;28;20067;-61
2023/02/24 17:00:49;;;;;;;93.03;83.50;;;;;;;;;;10344485;28;20505;-62
2023/02/24 17:05:49;;;;;;;82.82;74.43;;;;;;;;;;10344389;28;20845;-62
2023/02/24 17:10:48;;;;;;;77.47;69.53;;;;;;;;;;10341454;28;20075;-62
2023/02/24 17:15:48;;;;;;;90.28;72.53;;;;;;;;;;10339895;28;20469;-62
2023/02/24 17:20:46;;;;;;;95.05;85.15;;;;;;;;;;10344008;28;20072;-62
2023/02/24 17:25:47;;;;;;;115.78;103.30;;;;;;;;;;10349654;28;20064;-62
2023/02/24 17:30:45;;;;;;;100.53;90.20;;;;;;;;;;10343739;28;20703;-62
2023/02/24 17:35:45;;;;;;;92.05;82.32;;;;;;;;;;10339401;28;20068;-62
2023/02/24 17:40:44;;;;;;;107.45;88.28;;;;;;;;;;10344070;28;20094;-62
2023/02/24 17:45:44;;;;;;;117.38;85.05;;;;;;;;;;10346554;28;20063;-62
2023/02/24 17:50:43;;;;;;;63.47;48.20;;;;;;;;;;10342393;28;20067;-61
2023/02/24 17:55:42;;;;;;;51.38;39.78;;;;;;;;;;10345652;28;20063;-61
2023/02/24 18:01:00;;;;;;;44.83;37.05;;;;;;;;;;10338556;28;20119;-61
2023/02/24 18:06:00;;;;;;;54.85;40.90;;;;;;;;;;10350491;28;20473;-61
2023/02/24 18:10:58;;;;;;;78.95;55.65;;;;;;;;;;10350730;28;20060;-60
2023/02/24 18:15:57;;;;;;;55.17;40.25;;;;;;;;;;10350031;28;20060;-62
2023/02/24 18:21:01;;;;;;;54.60;41.83;;;;;;;;;;10343832;28;20071;-60
2023/02/24 18:26:00;;;;;;;39.67;30.70;;;;;;;;;;10353711;28;20059;-62
2023/02/24 18:30:59;;;;;;;55.75;43.08;;;;;;;;;;10343747;28;20074;-62
2023/02/24 18:35:58;;;;;;;68.00;51.28;;;;;;;;;;10338826;28;20809;-61
2023/02/24 18:40:58;;;;;;;39.88;32.10;;;;;;;;;;10340803;28;20087;-61
2023/02/24 18:45:57;;;;;;;29.30;22.40;;;;;;;;;;10340341;28;20064;-62
2023/02/24 18:50:55;;;;;;;33.28;20.85;;;;;;;;;;10340580;28;20063;-61
2023/02/24 18:56:00;;;;;;;103.63;62.15;;;;;;;;;;10345063;28;20068;-61
2023/02/24 19:00:58;;;;;;;121.78;76.32;;;;;;;;;;10343251;28;20509;-61
2023/02/24 19:05:56;;;;;;;129.32;73.93;;;;;;;;;;10348972;28;20048;-61
2023/02/24 19:10:55;;;;;;;55.70;35.70;;;;;;;;;;10342770;28;20079;-61
2023/02/24 19:15:54;;;;;;;51.67;34.85;;;;;;;;;;10341672;28;20060;-60
2023/02/24 19:20:52;;;;;;;57.50;37.90;;;;;;;;;;10343417;28;20079;-62
2023/02/24 19:25:51;;;;;;;117.65;68.50;;;;;;;;;;10342258;28;20067;-62
2023/02/24 19:30:49;;;;;;;36.10;26.98;;;;;;;;;;10344239;28;20076;-62
2023/02/24 19:35:48;;;;;;;48.80;28.10;;;;;;;;;;10339307;28;20037;-62
2023/02/24 19:40:50;;;;;;;165.13;74.95;;;;;;;;;;10340561;28;20090;-62
2023/02/24 19:45:48;;;;;;;167.95;83.72;;;;;;;;;;10338569;28;20087;-62
2023/02/24 19:50:46;;;;;;;147.25;76.57;;;;;;;;;;10342014;28;20520;-61
2023/02/24 19:55:49;;;;;;;264.23;142.20;;;;;;;;;;10340216;28;20074;-62
2023/02/24 20:00:47;;;;;;;123.72;64.47;;;;;;;;;;10341050;28;20071;-62
2023/02/24 20:05:46;;;;;;;121.45;66.40;;;;;;;;;;10338841;28;20074;-62
2023/02/24 20:10:44;;;;;;;148.13;69.82;;;;;;;;;;10334077;28;20056;-62
2023/02/24 20:15:43;;;;;;;179.27;96.45;;;;;;;;;;10340450;28;20075;-62
2023/02/24 20:20:42;;;;;;;51.08;30.65;;;;;;;;;;10340134;28;20063;-62
2023/02/24 20:25:40;;;;;;;33.33;25.90;;;;;;;;;;10338833;28;20086;-62
2023/02/24 20:30:38;;;;;;;61.17;41.15;;;;;;;;;;10340245;28;20481;-63
2023/02/24 20:35:39;;;;;;;49.15;29.88;;;;;;;;;;10339526;28;20504;-62
2023/02/24 20:40:38;;;;;;;38.70;25.75;;;;;;;;;;10341819;28;20091;-62
2023/02/24 20:45:37;;;;;;;64.78;36.88;;;;;;;;;;10340152;28;20072;-62
2023/02/24 20:50:36;;;;;;;47.35;29.27;;;;;;;;;;10347983;28;20071;-63
2023/02/24 20:55:37;;;;;;;32.35;26.83;;;;;;;;;;10336605;28;20068;-62
2023/02/24 21:00:37;;;;;;;37.47;32.55;;;;;;;;;;10338013;28;20075;-62
2023/02/24 21:05:35;;;;;;;60.90;42.28;;;;;;;;;;10339141;28;20098;-62
2023/02/24 21:10:33;;;;;;;28.77;21.83;;;;;;;;;;10340149;28;20090;-62
2023/02/24 21:15:33;;;;;;;22.98;18.98;;;;;;;;;;10339687;28;20110;-62
2023/02/24 21:20:31;;;;;;;23.45;18.67;;;;;;;;;;10339597;28;20517;-61
2023/02/24 21:25:29;;;;;;;26.00;19.58;;;;;;;;;;10341518;28;20067;-62
2023/02/24 21:30:27;;;;;;;24.85;18.70;;;;;;;;;;10332021;28;20040;-62
2023/02/24 21:35:27;;;;;;;25.25;19.38;;;;;;;;;;10341980;28;20083;-62
2023/02/24 21:40:25;;;;;;;25.13;21.38;;;;;;;;;;10347521;28;20681;-62
2023/02/24 21:45:23;;;;;;;26.83;21.08;;;;;;;;;;10344680;28;20083;-61
2023/02/24 21:50:22;;;;;;;23.00;18.77;;;;;;;;;;10346473;28;20063;-62
2023/02/24 21:55:22;;;;;;;20.45;16.98;;;;;;;;;;10346614;28;20064;-62
2023/02/24 22:00:22;;;;;;;22.27;15.40;;;;;;;;;;10347474;28;20060;-63
2023/02/24 22:05:21;;;;;;;19.35;15.65;;;;;;;;;;10347676;28;20075;-62
2023/02/24 22:10:21;;;;;;;23.35;19.23;;;;;;;;;;10343774;28;20523;-62
2023/02/24 22:15:20;;;;;;;39.47;26.05;;;;;;;;;;10344671;28;20485;-62
2023/02/24 22:20:18;;;;;;;31.05;22.40;;;;;;;;;;10342508;28;20071;-62
2023/02/24 22:25:17;;;;;;;25.73;17.98;;;;;;;;;;10346153;28;20064;-63
2023/02/24 22:30:15;;;;;;;22.95;15.43;;;;;;;;;;10345140;28;20082;-62
2023/02/24 22:35:14;;;;;;;22.33;16.42;;;;;;;;;;10344451;28;20063;-62
2023/02/24 22:40:13;;;;;;;28.20;18.75;;;;;;;;;;10345406;28;20517;-62
2023/02/24 22:45:11;;;;;;;26.75;20.55;;;;;;;;;;10342283;28;20549;-62
2023/02/24 22:50:10;;;;;;;20.63;16.52;;;;;;;;;;10343553;28;20067;-63
2023/02/24 22:55:10;;;;;;;24.13;16.58;;;;;;;;;;10341386;28;20060;-62
2023/02/24 23:00:18;;;;;;;19.15;15.75;;;;;;;;;;10343981;28;20071;-62
2023/02/24 23:05:17;;;;;;;21.52;16.45;;;;;;;;;;10343987;28;20071;-62
2023/02/24 23:10:17;;;;;;;22.02;17.50;;;;;;;;;;10341642;28;20537;-62
2023/02/24 23:15:16;;;;;;;17.15;14.80;;;;;;;;;;10346563;28;20068;-62
2023/02/24 23:20:15;;;;;;;22.05;17.95;;;;;;;;;;10342867;28;20072;-62
2023/02/24 23:25:13;;;;;;;22.30;15.48;;;;;;;;;;10343070;28;20116;-62
2023/02/24 23:30:13;;;;;;;23.67;18.98;;;;;;;;;;10338893;27;20993;-62
2023/02/24 23:35:12;;;;;;;22.48;16.52;;;;;;;;;;10343883;28;20087;-62
2023/02/24 23:40:13;;;;;;;21.50;16.35;;;;;;;;;;10340528;28;20079;-62
2023/02/24 23:45:13;;;;;;;23.15;17.20;;;;;;;;;;10347451;28;20068;-62
2023/02/24 23:50:12;;;;;;;26.05;19.10;;;;;;;;;;10342106;28;20067;-62
2023/02/24 23:55:11;;;;;;;23.00;16.35;;;;;;;;;;10339496;28;20064;-62
